K26 weather

Carrollton Memorial Airport
Carrollton, Missouri, United States

Public forecast

Using degrees Fahrenheit for public forecast. Weather courtesy of forecast.io.

Closest aviation weather report (METAR) to Carrollton Memorial Airport

Closest report is Marshall Memorial Municipal Airport, 19.2 nm (35.5 km) SE. Retrieved 2020/02/18 06:35 UTC (0 seconds ago):

KMHL 180635Z AUTO 29008KT 10SM OVC016 02/00 A3005 RMK AO2 TSNO PWINO

Closest aviation forecast (TAF) to Carrollton Memorial Airport

Forecast is more than 12 hours old.

Closest forecast is Whiteman Air Force Base, 34.9 nm (64.7 km) S. Retrieved 2020-02-14 03:03 UTC (4 days ago):

TAF KSZL 140300Z 1403/1509 33006KT 9999 SKC QNH3038INS BECMG 1405/1406 03005KT 9999 SKC QNH3047INS BECMG 1413/1414 15009KT 9999 SKC QNH3043INS TXM05/1419Z TNM18/1411Z